CheckWX is a tool to help pilots better visualize weather data.  It is not intended as a substitute for an official pre-flight weather briefing.

03:14:04 UTC

KMBG METAR
Mobridge Municipal Airport
Mobridge, South Dakota, USA
Current

22 mins ago

KMBG 020252Z AUTO 34018G26KT 10SM OVC019 M03/M09 A2996 RMK AO2 PK WND 34032/0157 SLP162 T10331089 51028
Observed
Apr-2 @ 02:52 UTC
Wind
  • 340° at 18 KTS
  • Gusting to 26 KTS
Visibility
10 SM
Flight Rules
MVFR
Cloud Levels
  • Overcast at 1,900' AGL
Temperature
-3°C / 27°F
Dewpoint
-9°C / 16°F
Humidity
64%
Altimeter
29.96" Hg
Pressure
1014.52 hPa
Previous

50 mins ago

KMBG 020224Z AUTO 34014G24KT 10SM BKN019 BKN042 OVC110 M03/M08 A2996 RMK AO2 PK WND 34032/0157 T10281083
Observed
Apr-2 @ 02:24 UTC
Wind
  • 340° at 14 KTS
  • Gusting to 24 KTS
Visibility
10 SM
Flight Rules
MVFR
Cloud Levels
  • Broken at 1,900' AGL
  • Broken at 4,200' AGL
  • Overcast at 11,000' AGL
Temperature
-3°C / 27°F
Dewpoint
-8°C / 18°F
Humidity
69%
Altimeter
29.96" Hg
Pressure
1014.52 hPa
Previous

1 hour ago

KMBG 020152Z AUTO 34017G33KT 10SM FEW019 OVC039 M02/M08 A2994 RMK AO2 PK WND 33034/0117 SLP155 T10221078
Observed
Apr-2 @ 01:52 UTC
Wind
  • 340° at 17 KTS
  • Gusting to 33 KTS
Visibility
10 SM
Flight Rules
VFR
Cloud Levels
  • Few at 1,900' AGL
  • Overcast at 3,900' AGL
Temperature
-2°C / 28°F
Dewpoint
-8°C / 18°F
Humidity
64%
Altimeter
29.94" Hg
Pressure
1013.92 hPa